sensor_id;sensor_type;location;lat;lon;timestamp;P1;durP1;ratioP1;P2;durP2;ratioP2
67595;SDS011;54410;48.694;8.934;2023-01-15T00:02:08;0.85;;;0.63;;
67595;SDS011;54410;48.694;8.934;2023-01-15T00:04:36;2.42;;;1.00;;
67595;SDS011;54410;48.694;8.934;2023-01-15T00:07:02;3.47;;;2.00;;
67595;SDS011;54410;48.694;8.934;2023-01-15T00:09:28;0.77;;;0.77;;
67595;SDS011;54410;48.694;8.934;2023-01-15T00:11:54;1.95;;;1.85;;
67595;SDS011;54410;48.694;8.934;2023-01-15T00:14:21;0.52;;;0.52;;
67595;SDS011;54410;48.694;8.934;2023-01-15T00:16:49;0.50;;;0.50;;
67595;SDS011;54410;48.694;8.934;2023-01-15T00:19:16;0.80;;;0.50;;
67595;SDS011;54410;48.694;8.934;2023-01-15T00:21:42;1.10;;;1.00;;
67595;SDS011;54410;48.694;8.934;2023-01-15T00:24:08;1.20;;;0.80;;
67595;SDS011;54410;48.694;8.934;2023-01-15T00:26:52;1.15;;;0.63;;
67595;SDS011;54410;48.694;8.934;2023-01-15T00:29:37;2.10;;;0.80;;
67595;SDS011;54410;48.694;8.934;2023-01-15T00:32:04;1.10;;;0.90;;
67595;SDS011;54410;48.694;8.934;2023-01-15T00:34:31;0.55;;;0.52;;
67595;SDS011;54410;48.694;8.934;2023-01-15T00:36:57;0.63;;;0.52;;
67595;SDS011;54410;48.694;8.934;2023-01-15T00:39:23;1.27;;;0.70;;
67595;SDS011;54410;48.694;8.934;2023-01-15T00:41:50;0.82;;;0.50;;
67595;SDS011;54410;48.694;8.934;2023-01-15T00:44:16;0.65;;;0.55;;
67595;SDS011;54410;48.694;8.934;2023-01-15T00:46:43;1.05;;;0.55;;
67595;SDS011;54410;48.694;8.934;2023-01-15T00:49:09;0.60;;;0.60;;
67595;SDS011;54410;48.694;8.934;2023-01-15T00:51:35;0.45;;;0.40;;
67595;SDS011;54410;48.694;8.934;2023-01-15T00:54:01;0.30;;;0.30;;
67595;SDS011;54410;48.694;8.934;2023-01-15T00:56:27;0.93;;;0.73;;
67595;SDS011;54410;48.694;8.934;2023-01-15T00:58:53;0.50;;;0.50;;
67595;SDS011;54410;48.694;8.934;2023-01-15T01:01:19;1.35;;;0.47;;
67595;SDS011;54410;48.694;8.934;2023-01-15T01:03:45;0.93;;;0.50;;
67595;SDS011;54410;48.694;8.934;2023-01-15T01:06:13;0.70;;;0.47;;
67595;SDS011;54410;48.694;8.934;2023-01-15T01:08:39;0.82;;;0.40;;
67595;SDS011;54410;48.694;8.934;2023-01-15T01:11:10;0.55;;;0.50;;
67595;SDS011;54410;48.694;8.934;2023-01-15T01:13:37;0.40;;;0.35;;
67595;SDS011;54410;48.694;8.934;2023-01-15T01:16:03;1.73;;;0.60;;
67595;SDS011;54410;48.694;8.934;2023-01-15T01:18:30;0.80;;;0.80;;
67595;SDS011;54410;48.694;8.934;2023-01-15T01:20:56;0.30;;;0.30;;
67595;SDS011;54410;48.694;8.934;2023-01-15T01:23:22;0.20;;;0.20;;
67595;SDS011;54410;48.694;8.934;2023-01-15T01:25:48;0.30;;;0.30;;
67595;SDS011;54410;48.694;8.934;2023-01-15T01:28:14;0.30;;;0.30;;
67595;SDS011;54410;48.694;8.934;2023-01-15T01:30:40;0.30;;;0.30;;
67595;SDS011;54410;48.694;8.934;2023-01-15T01:33:06;0.55;;;0.30;;
67595;SDS011;54410;48.694;8.934;2023-01-15T01:35:32;0.80;;;0.30;;
67595;SDS011;54410;48.694;8.934;2023-01-15T01:37:58;0.30;;;0.30;;
67595;SDS011;54410;48.694;8.934;2023-01-15T01:40:24;0.30;;;0.30;;
67595;SDS011;54410;48.694;8.934;2023-01-15T01:42:50;0.38;;;0.38;;
67595;SDS011;54410;48.694;8.934;2023-01-15T01:45:27;0.20;;;0.20;;
67595;SDS011;54410;48.694;8.934;2023-01-15T01:47:55;0.30;;;0.30;;
67595;SDS011;54410;48.694;8.934;2023-01-15T01:50:22;0.22;;;0.22;;
67595;SDS011;54410;48.694;8.934;2023-01-15T01:52:51;0.30;;;0.30;;
67595;SDS011;54410;48.694;8.934;2023-01-15T01:55:21;0.40;;;0.30;;
67595;SDS011;54410;48.694;8.934;2023-01-15T01:57:49;0.30;;;0.30;;
67595;SDS011;54410;48.694;8.934;2023-01-15T02:00:16;0.73;;;0.20;;
67595;SDS011;54410;48.694;8.934;2023-01-15T02:02:43;0.63;;;0.20;;
67595;SDS011;54410;48.694;8.934;2023-01-15T02:05:14;0.20;;;0.20;;
67595;SDS011;54410;48.694;8.934;2023-01-15T02:07:42;0.47;;;0.30;;
67595;SDS011;54410;48.694;8.934;2023-01-15T02:10:13;0.30;;;0.30;;
67595;SDS011;54410;48.694;8.934;2023-01-15T02:12:40;0.20;;;0.20;;
67595;SDS011;54410;48.694;8.934;2023-01-15T02:15:10;0.30;;;0.30;;
67595;SDS011;54410;48.694;8.934;2023-01-15T02:20:24;0.28;;;0.28;;
67595;SDS011;54410;48.694;8.934;2023-01-15T02:28:27;0.50;;;0.35;;
67595;SDS011;54410;48.694;8.934;2023-01-15T02:31:03;0.30;;;0.30;;
67595;SDS011;54410;48.694;8.934;2023-01-15T02:33:39;0.20;;;0.17;;
67595;SDS011;54410;48.694;8.934;2023-01-15T02:36:11;0.20;;;0.20;;
67595;SDS011;54410;48.694;8.934;2023-01-15T02:38:41;0.20;;;0.20;;
67595;SDS011;54410;48.694;8.934;2023-01-15T02:41:08;0.20;;;0.20;;
67595;SDS011;54410;48.694;8.934;2023-01-15T02:43:40;0.20;;;0.20;;
67595;SDS011;54410;48.694;8.934;2023-01-15T02:46:08;0.20;;;0.20;;
67595;SDS011;54410;48.694;8.934;2023-01-15T02:48:35;0.30;;;0.30;;
67595;SDS011;54410;48.694;8.934;2023-01-15T02:51:08;0.30;;;0.30;;
67595;SDS011;54410;48.694;8.934;2023-01-15T02:53:36;0.20;;;0.20;;
67595;SDS011;54410;48.694;8.934;2023-01-15T02:56:06;0.20;;;0.20;;
67595;SDS011;54410;48.694;8.934;2023-01-15T02:58:35;0.20;;;0.20;;
67595;SDS011;54410;48.694;8.934;2023-01-15T03:01:03;0.10;;;0.10;;
67595;SDS011;54410;48.694;8.934;2023-01-15T03:03:43;0.20;;;0.20;;
67595;SDS011;54410;48.694;8.934;2023-01-15T03:06:18;0.30;;;0.30;;
67595;SDS011;54410;48.694;8.934;2023-01-15T03:08:46;0.60;;;0.25;;
67595;SDS011;54410;48.694;8.934;2023-01-15T03:11:14;2.05;;;0.30;;
67595;SDS011;54410;48.694;8.934;2023-01-15T03:16:25;0.47;;;0.40;;
67595;SDS011;54410;48.694;8.934;2023-01-15T03:22:02;0.30;;;0.30;;
67595;SDS011;54410;48.694;8.934;2023-01-15T03:24:31;0.28;;;0.28;;
67595;SDS011;54410;48.694;8.934;2023-01-15T03:26:57;0.20;;;0.20;;
67595;SDS011;54410;48.694;8.934;2023-01-15T03:29:24;0.32;;;0.32;;
67595;SDS011;54410;48.694;8.934;2023-01-15T03:31:53;0.25;;;0.25;;
67595;SDS011;54410;48.694;8.934;2023-01-15T03:34:19;0.20;;;0.20;;
67595;SDS011;54410;48.694;8.934;2023-01-15T03:36:45;0.30;;;0.30;;
67595;SDS011;54410;48.694;8.934;2023-01-15T03:39:11;0.20;;;0.20;;
67595;SDS011;54410;48.694;8.934;2023-01-15T03:41:44;0.57;;;0.57;;
67595;SDS011;54410;48.694;8.934;2023-01-15T03:49:51;0.20;;;0.20;;
67595;SDS011;54410;48.694;8.934;2023-01-15T03:52:28;0.20;;;0.20;;
67595;SDS011;54410;48.694;8.934;2023-01-15T03:57:41;0.20;;;0.20;;
67595;SDS011;54410;48.694;8.934;2023-01-15T04:00:18;0.30;;;0.30;;
67595;SDS011;54410;48.694;8.934;2023-01-15T04:02:46;0.43;;;0.20;;
67595;SDS011;54410;48.694;8.934;2023-01-15T04:05:12;0.30;;;0.30;;
67595;SDS011;54410;48.694;8.934;2023-01-15T04:07:38;0.22;;;0.22;;
67595;SDS011;54410;48.694;8.934;2023-01-15T04:10:06;0.20;;;0.20;;
67595;SDS011;54410;48.694;8.934;2023-01-15T04:12:33;0.15;;;0.15;;
67595;SDS011;54410;48.694;8.934;2023-01-15T04:14:58;0.20;;;0.20;;
67595;SDS011;54410;48.694;8.934;2023-01-15T04:17:24;0.20;;;0.20;;
67595;SDS011;54410;48.694;8.934;2023-01-15T04:19:50;0.52;;;0.30;;
67595;SDS011;54410;48.694;8.934;2023-01-15T04:22:16;0.80;;;0.30;;
67595;SDS011;54410;48.694;8.934;2023-01-15T04:24:42;0.85;;;0.40;;
67595;SDS011;54410;48.694;8.934;2023-01-15T04:27:08;0.20;;;0.20;;
67595;SDS011;54410;48.694;8.934;2023-01-15T04:29:34;0.20;;;0.20;;
67595;SDS011;54410;48.694;8.934;2023-01-15T04:32:00;0.20;;;0.20;;
67595;SDS011;54410;48.694;8.934;2023-01-15T04:34:26;0.22;;;0.22;;
67595;SDS011;54410;48.694;8.934;2023-01-15T04:36:53;0.30;;;0.30;;
67595;SDS011;54410;48.694;8.934;2023-01-15T04:39:19;0.30;;;0.30;;
67595;SDS011;54410;48.694;8.934;2023-01-15T04:41:44;0.20;;;0.20;;
67595;SDS011;54410;48.694;8.934;2023-01-15T04:44:29;0.47;;;0.30;;
67595;SDS011;54410;48.694;8.934;2023-01-15T04:46:55;0.25;;;0.20;;
67595;SDS011;54410;48.694;8.934;2023-01-15T04:49:21;0.20;;;0.20;;
67595;SDS011;54410;48.694;8.934;2023-01-15T04:51:47;0.20;;;0.20;;
67595;SDS011;54410;48.694;8.934;2023-01-15T04:54:14;0.30;;;0.30;;
67595;SDS011;54410;48.694;8.934;2023-01-15T04:56:42;0.45;;;0.30;;
67595;SDS011;54410;48.694;8.934;2023-01-15T04:59:09;0.20;;;0.20;;
67595;SDS011;54410;48.694;8.934;2023-01-15T05:01:35;0.20;;;0.20;;
67595;SDS011;54410;48.694;8.934;2023-01-15T05:04:01;0.20;;;0.20;;
67595;SDS011;54410;48.694;8.934;2023-01-15T05:06:28;0.20;;;0.20;;
67595;SDS011;54410;48.694;8.934;2023-01-15T05:08:55;0.30;;;0.30;;
67595;SDS011;54410;48.694;8.934;2023-01-15T05:11:21;0.20;;;0.20;;
67595;SDS011;54410;48.694;8.934;2023-01-15T05:13:47;0.20;;;0.20;;
67595;SDS011;54410;48.694;8.934;2023-01-15T05:16:15;0.20;;;0.20;;
67595;SDS011;54410;48.694;8.934;2023-01-15T05:18:41;0.20;;;0.20;;
67595;SDS011;54410;48.694;8.934;2023-01-15T05:21:21;0.28;;;0.28;;
67595;SDS011;54410;48.694;8.934;2023-01-15T05:23:48;0.85;;;0.30;;
67595;SDS011;54410;48.694;8.934;2023-01-15T05:26:14;0.20;;;0.20;;
67595;SDS011;54410;48.694;8.934;2023-01-15T05:28:41;0.20;;;0.20;;
67595;SDS011;54410;48.694;8.934;2023-01-15T05:31:17;0.20;;;0.20;;
67595;SDS011;54410;48.694;8.934;2023-01-15T05:33:43;0.28;;;0.28;;
67595;SDS011;54410;48.694;8.934;2023-01-15T05:36:12;0.20;;;0.20;;
67595;SDS011;54410;48.694;8.934;2023-01-15T05:38:39;0.22;;;0.22;;
67595;SDS011;54410;48.694;8.934;2023-01-15T05:41:05;0.20;;;0.20;;
67595;SDS011;54410;48.694;8.934;2023-01-15T05:43:52;0.20;;;0.20;;
67595;SDS011;54410;48.694;8.934;2023-01-15T05:46:18;0.20;;;0.20;;
67595;SDS011;54410;48.694;8.934;2023-01-15T05:48:44;0.20;;;0.20;;
67595;SDS011;54410;48.694;8.934;2023-01-15T05:51:10;0.20;;;0.20;;
67595;SDS011;54410;48.694;8.934;2023-01-15T05:53:36;0.50;;;0.50;;
67595;SDS011;54410;48.694;8.934;2023-01-15T05:56:02;0.20;;;0.20;;
67595;SDS011;54410;48.694;8.934;2023-01-15T05:58:29;0.40;;;0.40;;
67595;SDS011;54410;48.694;8.934;2023-01-15T06:00:54;0.40;;;0.40;;
67595;SDS011;54410;48.694;8.934;2023-01-15T06:03:21;0.30;;;0.30;;
67595;SDS011;54410;48.694;8.934;2023-01-15T06:05:50;0.20;;;0.20;;
67595;SDS011;54410;48.694;8.934;2023-01-15T06:08:16;0.30;;;0.30;;
67595;SDS011;54410;48.694;8.934;2023-01-15T06:10:45;0.30;;;0.30;;
67595;SDS011;54410;48.694;8.934;2023-01-15T06:13:12;0.30;;;0.30;;
67595;SDS011;54410;48.694;8.934;2023-01-15T06:15:38;0.20;;;0.20;;
67595;SDS011;54410;48.694;8.934;2023-01-15T06:18:04;0.20;;;0.20;;
67595;SDS011;54410;48.694;8.934;2023-01-15T06:20:30;0.20;;;0.20;;
67595;SDS011;54410;48.694;8.934;2023-01-15T06:22:55;0.30;;;0.30;;
67595;SDS011;54410;48.694;8.934;2023-01-15T06:25:21;0.30;;;0.30;;
67595;SDS011;54410;48.694;8.934;2023-01-15T06:27:47;0.30;;;0.30;;
67595;SDS011;54410;48.694;8.934;2023-01-15T06:30:13;0.30;;;0.30;;
67595;SDS011;54410;48.694;8.934;2023-01-15T06:32:40;0.20;;;0.20;;
67595;SDS011;54410;48.694;8.934;2023-01-15T06:35:06;0.20;;;0.20;;
67595;SDS011;54410;48.694;8.934;2023-01-15T06:37:32;0.27;;;0.27;;
67595;SDS011;54410;48.694;8.934;2023-01-15T06:39:57;0.30;;;0.30;;
67595;SDS011;54410;48.694;8.934;2023-01-15T06:42:23;0.30;;;0.30;;
67595;SDS011;54410;48.694;8.934;2023-01-15T06:45:11;0.93;;;0.33;;
67595;SDS011;54410;48.694;8.934;2023-01-15T06:47:56;0.30;;;0.30;;
67595;SDS011;54410;48.694;8.934;2023-01-15T06:50:22;0.40;;;0.40;;
67595;SDS011;54410;48.694;8.934;2023-01-15T06:52:49;0.20;;;0.20;;
67595;SDS011;54410;48.694;8.934;2023-01-15T06:55:15;0.30;;;0.30;;
67595;SDS011;54410;48.694;8.934;2023-01-15T06:57:42;0.30;;;0.30;;
67595;SDS011;54410;48.694;8.934;2023-01-15T07:00:09;0.20;;;0.20;;
67595;SDS011;54410;48.694;8.934;2023-01-15T07:02:35;0.30;;;0.30;;
67595;SDS011;54410;48.694;8.934;2023-01-15T07:05:01;0.30;;;0.30;;
67595;SDS011;54410;48.694;8.934;2023-01-15T07:07:27;0.30;;;0.30;;
67595;SDS011;54410;48.694;8.934;2023-01-15T07:09:54;0.30;;;0.30;;
67595;SDS011;54410;48.694;8.934;2023-01-15T07:12:19;0.20;;;0.20;;
67595;SDS011;54410;48.694;8.934;2023-01-15T07:14:45;0.30;;;0.30;;
67595;SDS011;54410;48.694;8.934;2023-01-15T07:17:11;0.30;;;0.30;;
67595;SDS011;54410;48.694;8.934;2023-01-15T07:19:38;0.40;;;0.40;;
67595;SDS011;54410;48.694;8.934;2023-01-15T07:22:04;0.30;;;0.30;;
67595;SDS011;54410;48.694;8.934;2023-01-15T07:24:30;0.30;;;0.30;;
67595;SDS011;54410;48.694;8.934;2023-01-15T07:26:56;0.30;;;0.30;;
67595;SDS011;54410;48.694;8.934;2023-01-15T07:29:21;0.40;;;0.40;;
67595;SDS011;54410;48.694;8.934;2023-01-15T07:31:47;0.40;;;0.40;;
67595;SDS011;54410;48.694;8.934;2023-01-15T07:34:14;0.30;;;0.30;;
67595;SDS011;54410;48.694;8.934;2023-01-15T07:36:40;0.30;;;0.30;;
67595;SDS011;54410;48.694;8.934;2023-01-15T07:39:07;0.37;;;0.37;;
67595;SDS011;54410;48.694;8.934;2023-01-15T07:41:33;0.40;;;0.40;;
67595;SDS011;54410;48.694;8.934;2023-01-15T07:44:18;0.43;;;0.43;;
67595;SDS011;54410;48.694;8.934;2023-01-15T07:47:02;0.60;;;0.60;;
67595;SDS011;54410;48.694;8.934;2023-01-15T07:49:52;0.70;;;0.70;;
67595;SDS011;54410;48.694;8.934;2023-01-15T07:52:20;0.70;;;0.70;;
67595;SDS011;54410;48.694;8.934;2023-01-15T07:54:47;0.60;;;0.60;;
67595;SDS011;54410;48.694;8.934;2023-01-15T07:57:13;0.43;;;0.43;;
67595;SDS011;54410;48.694;8.934;2023-01-15T07:59:44;0.70;;;0.70;;
67595;SDS011;54410;48.694;8.934;2023-01-15T08:02:10;0.60;;;0.60;;
67595;SDS011;54410;48.694;8.934;2023-01-15T08:04:37;0.40;;;0.40;;
67595;SDS011;54410;48.694;8.934;2023-01-15T08:07:03;0.40;;;0.40;;
67595;SDS011;54410;48.694;8.934;2023-01-15T08:09:29;0.60;;;0.60;;
67595;SDS011;54410;48.694;8.934;2023-01-15T08:11:59;0.43;;;0.43;;
67595;SDS011;54410;48.694;8.934;2023-01-15T08:14:44;0.40;;;0.40;;
67595;SDS011;54410;48.694;8.934;2023-01-15T08:17:29;0.53;;;0.53;;
67595;SDS011;54410;48.694;8.934;2023-01-15T08:19:57;0.60;;;0.60;;
67595;SDS011;54410;48.694;8.934;2023-01-15T08:22:23;0.70;;;0.70;;
67595;SDS011;54410;48.694;8.934;2023-01-15T08:24:48;0.40;;;0.40;;
67595;SDS011;54410;48.694;8.934;2023-01-15T08:27:14;0.60;;;0.60;;
67595;SDS011;54410;48.694;8.934;2023-01-15T08:29:40;0.60;;;0.60;;
67595;SDS011;54410;48.694;8.934;2023-01-15T08:32:05;1.10;;;1.10;;
67595;SDS011;54410;48.694;8.934;2023-01-15T08:34:32;0.90;;;0.90;;
67595;SDS011;54410;48.694;8.934;2023-01-15T08:36:57;2.30;;;2.10;;
67595;SDS011;54410;48.694;8.934;2023-01-15T08:39:27;1.13;;;0.90;;
67595;SDS011;54410;48.694;8.934;2023-01-15T08:41:53;0.70;;;0.70;;
67595;SDS011;54410;48.694;8.934;2023-01-15T08:44:20;0.70;;;0.70;;
67595;SDS011;54410;48.694;8.934;2023-01-15T08:46:46;0.70;;;0.70;;
67595;SDS011;54410;48.694;8.934;2023-01-15T08:49:12;0.40;;;0.40;;
67595;SDS011;54410;48.694;8.934;2023-01-15T08:51:38;0.40;;;0.40;;
67595;SDS011;54410;48.694;8.934;2023-01-15T08:54:04;0.90;;;0.90;;
67595;SDS011;54410;48.694;8.934;2023-01-15T08:56:30;0.30;;;0.30;;
67595;SDS011;54410;48.694;8.934;2023-01-15T08:58:56;0.50;;;0.50;;
67595;SDS011;54410;48.694;8.934;2023-01-15T09:01:22;0.40;;;0.40;;
67595;SDS011;54410;48.694;8.934;2023-01-15T09:03:48;0.30;;;0.30;;
67595;SDS011;54410;48.694;8.934;2023-01-15T09:06:14;0.30;;;0.30;;
67595;SDS011;54410;48.694;8.934;2023-01-15T09:08:40;0.20;;;0.20;;
67595;SDS011;54410;48.694;8.934;2023-01-15T09:11:06;0.30;;;0.30;;
67595;SDS011;54410;48.694;8.934;2023-01-15T09:13:34;0.30;;;0.30;;
67595;SDS011;54410;48.694;8.934;2023-01-15T09:16:04;0.30;;;0.30;;
67595;SDS011;54410;48.694;8.934;2023-01-15T09:18:30;0.50;;;0.50;;
67595;SDS011;54410;48.694;8.934;2023-01-15T09:20:56;0.40;;;0.40;;
67595;SDS011;54410;48.694;8.934;2023-01-15T09:23:23;0.40;;;0.40;;
67595;SDS011;54410;48.694;8.934;2023-01-15T09:25:59;0.40;;;0.40;;
67595;SDS011;54410;48.694;8.934;2023-01-15T09:28:28;0.40;;;0.40;;
67595;SDS011;54410;48.694;8.934;2023-01-15T09:30:54;0.73;;;0.53;;
67595;SDS011;54410;48.694;8.934;2023-01-15T09:33:20;0.30;;;0.30;;
67595;SDS011;54410;48.694;8.934;2023-01-15T09:35:46;0.50;;;0.50;;
67595;SDS011;54410;48.694;8.934;2023-01-15T09:38:13;0.50;;;0.50;;
67595;SDS011;54410;48.694;8.934;2023-01-15T09:40:49;0.67;;;0.50;;
67595;SDS011;54410;48.694;8.934;2023-01-15T09:45:56;0.30;;;0.30;;
67595;SDS011;54410;48.694;8.934;2023-01-15T09:51:20;0.53;;;0.50;;
67595;SDS011;54410;48.694;8.934;2023-01-15T09:56:23;0.33;;;0.33;;
67595;SDS011;54410;48.694;8.934;2023-01-15T09:58:50;0.30;;;0.30;;
67595;SDS011;54410;48.694;8.934;2023-01-15T10:01:18;0.30;;;0.30;;
67595;SDS011;54410;48.694;8.934;2023-01-15T10:03:49;0.50;;;0.40;;
67595;SDS011;54410;48.694;8.934;2023-01-15T10:08:43;0.40;;;0.40;;
67595;SDS011;54410;48.694;8.934;2023-01-15T10:16:20;0.53;;;0.53;;
67595;SDS011;54410;48.694;8.934;2023-01-15T10:18:47;0.40;;;0.40;;
67595;SDS011;54410;48.694;8.934;2023-01-15T10:26:38;0.53;;;0.53;;
67595;SDS011;54410;48.694;8.934;2023-01-15T10:29:29;0.60;;;0.60;;
67595;SDS011;54410;48.694;8.934;2023-01-15T10:37:23;5.70;;;1.00;;
67595;SDS011;54410;48.694;8.934;2023-01-15T10:45:31;1.10;;;1.00;;
67595;SDS011;54410;48.694;8.934;2023-01-15T10:48:00;0.60;;;0.60;;
67595;SDS011;54410;48.694;8.934;2023-01-15T10:50:29;0.60;;;0.60;;
67595;SDS011;54410;48.694;8.934;2023-01-15T10:53:06;0.83;;;0.60;;
67595;SDS011;54410;48.694;8.934;2023-01-15T10:55:46;0.67;;;0.67;;
67595;SDS011;54410;48.694;8.934;2023-01-15T11:00:57;0.70;;;0.70;;
67595;SDS011;54410;48.694;8.934;2023-01-15T11:03:31;0.60;;;0.60;;
67595;SDS011;54410;48.694;8.934;2023-01-15T11:06:00;0.50;;;0.50;;
67595;SDS011;54410;48.694;8.934;2023-01-15T11:08:26;0.60;;;0.60;;
67595;SDS011;54410;48.694;8.934;2023-01-15T11:10:55;0.60;;;0.60;;
67595;SDS011;54410;48.694;8.934;2023-01-15T11:13:23;0.90;;;0.90;;
67595;SDS011;54410;48.694;8.934;2023-01-15T11:16:14;0.40;;;0.40;;
67595;SDS011;54410;48.694;8.934;2023-01-15T11:19:03;0.70;;;0.70;;
67595;SDS011;54410;48.694;8.934;2023-01-15T11:21:49;0.40;;;0.40;;
67595;SDS011;54410;48.694;8.934;2023-01-15T11:24:16;0.40;;;0.40;;
67595;SDS011;54410;48.694;8.934;2023-01-15T11:26:46;0.53;;;0.53;;
67595;SDS011;54410;48.694;8.934;2023-01-15T11:29:14;0.70;;;0.70;;
67595;SDS011;54410;48.694;8.934;2023-01-15T11:31:40;0.50;;;0.50;;
67595;SDS011;54410;48.694;8.934;2023-01-15T11:34:15;0.60;;;0.60;;
67595;SDS011;54410;48.694;8.934;2023-01-15T11:36:42;0.60;;;0.60;;
67595;SDS011;54410;48.694;8.934;2023-01-15T11:39:24;0.60;;;0.60;;
67595;SDS011;54410;48.694;8.934;2023-01-15T11:42:01;0.50;;;0.50;;
67595;SDS011;54410;48.694;8.934;2023-01-15T11:44:52;0.60;;;0.60;;
67595;SDS011;54410;48.694;8.934;2023-01-15T11:47:37;0.47;;;0.47;;
67595;SDS011;54410;48.694;8.934;2023-01-15T11:50:22;0.43;;;0.43;;
67595;SDS011;54410;48.694;8.934;2023-01-15T11:53:08;0.63;;;0.60;;
67595;SDS011;54410;48.694;8.934;2023-01-15T11:55:39;0.60;;;0.60;;
67595;SDS011;54410;48.694;8.934;2023-01-15T11:58:07;0.70;;;0.70;;
67595;SDS011;54410;48.694;8.934;2023-01-15T12:00:35;0.87;;;0.73;;
67595;SDS011;54410;48.694;8.934;2023-01-15T12:03:25;0.80;;;0.80;;
67595;SDS011;54410;48.694;8.934;2023-01-15T12:05:59;0.60;;;0.60;;
67595;SDS011;54410;48.694;8.934;2023-01-15T12:16:47;1.07;;;0.50;;
67595;SDS011;54410;48.694;8.934;2023-01-15T12:26:53;0.57;;;0.57;;
67595;SDS011;54410;48.694;8.934;2023-01-15T12:29:26;0.50;;;0.50;;
67595;SDS011;54410;48.694;8.934;2023-01-15T12:31:55;0.53;;;0.50;;
67595;SDS011;54410;48.694;8.934;2023-01-15T12:34:27;1.43;;;0.80;;
67595;SDS011;54410;48.694;8.934;2023-01-15T12:37:01;0.80;;;0.80;;
67595;SDS011;54410;48.694;8.934;2023-01-15T12:39:31;1.13;;;0.90;;
67595;SDS011;54410;48.694;8.934;2023-01-15T12:42:02;1.10;;;1.00;;
67595;SDS011;54410;48.694;8.934;2023-01-15T12:44:55;1.10;;;1.00;;
67595;SDS011;54410;48.694;8.934;2023-01-15T12:52:32;2.03;;;1.60;;
67595;SDS011;54410;48.694;8.934;2023-01-15T12:55:12;1.80;;;1.10;;
67595;SDS011;54410;48.694;8.934;2023-01-15T12:57:43;2.07;;;1.60;;
67595;SDS011;54410;48.694;8.934;2023-01-15T13:00:12;3.03;;;1.97;;
67595;SDS011;54410;48.694;8.934;2023-01-15T13:05:31;2.70;;;1.60;;
67595;SDS011;54410;48.694;8.934;2023-01-15T13:08:04;1.50;;;1.40;;
67595;SDS011;54410;48.694;8.934;2023-01-15T13:10:30;1.87;;;1.03;;
67595;SDS011;54410;48.694;8.934;2023-01-15T13:13:13;1.67;;;0.80;;
67595;SDS011;54410;48.694;8.934;2023-01-15T13:15:41;3.70;;;1.20;;
67595;SDS011;54410;48.694;8.934;2023-01-15T13:18:14;1.53;;;1.27;;
67595;SDS011;54410;48.694;8.934;2023-01-15T13:20:47;1.20;;;0.93;;
67595;SDS011;54410;48.694;8.934;2023-01-15T13:33:26;0.87;;;0.60;;
67595;SDS011;54410;48.694;8.934;2023-01-15T13:36:18;0.90;;;0.90;;
67595;SDS011;54410;48.694;8.934;2023-01-15T13:38:44;3.73;;;1.50;;
67595;SDS011;54410;48.694;8.934;2023-01-15T13:41:15;5.00;;;1.93;;
67595;SDS011;54410;48.694;8.934;2023-01-15T13:44:03;5.70;;;4.17;;
67595;SDS011;54410;48.694;8.934;2023-01-15T13:46:29;2.60;;;1.73;;
67595;SDS011;54410;48.694;8.934;2023-01-15T13:48:55;0.70;;;0.70;;
67595;SDS011;54410;48.694;8.934;2023-01-15T13:51:26;1.43;;;0.90;;
67595;SDS011;54410;48.694;8.934;2023-01-15T13:54:03;1.13;;;0.90;;
67595;SDS011;54410;48.694;8.934;2023-01-15T13:56:30;1.13;;;0.90;;
67595;SDS011;54410;48.694;8.934;2023-01-15T13:58:58;1.33;;;0.90;;
67595;SDS011;54410;48.694;8.934;2023-01-15T14:01:34;0.73;;;0.73;;
67595;SDS011;54410;48.694;8.934;2023-01-15T14:09:05;1.03;;;0.90;;
67595;SDS011;54410;48.694;8.934;2023-01-15T14:17:01;0.77;;;0.77;;
67595;SDS011;54410;48.694;8.934;2023-01-15T14:19:38;0.70;;;0.60;;
67595;SDS011;54410;48.694;8.934;2023-01-15T14:22:11;1.43;;;0.60;;
67595;SDS011;54410;48.694;8.934;2023-01-15T14:27:26;1.13;;;0.60;;
67595;SDS011;54410;48.694;8.934;2023-01-15T14:35:09;1.60;;;1.00;;
67595;SDS011;54410;48.694;8.934;2023-01-15T14:37:47;0.87;;;0.67;;
67595;SDS011;54410;48.694;8.934;2023-01-15T14:40:33;2.00;;;1.00;;
67595;SDS011;54410;48.694;8.934;2023-01-15T14:43:09;3.43;;;1.23;;
67595;SDS011;54410;48.694;8.934;2023-01-15T14:45:42;3.70;;;1.53;;
67595;SDS011;54410;48.694;8.934;2023-01-15T14:48:19;2.43;;;1.00;;
67595;SDS011;54410;48.694;8.934;2023-01-15T14:50:46;2.33;;;1.20;;
67595;SDS011;54410;48.694;8.934;2023-01-15T14:53:20;1.57;;;1.00;;
67595;SDS011;54410;48.694;8.934;2023-01-15T14:55:50;1.30;;;0.87;;
67595;SDS011;54410;48.694;8.934;2023-01-15T15:01:22;2.67;;;0.90;;
67595;SDS011;54410;48.694;8.934;2023-01-15T15:03:52;3.67;;;1.10;;
67595;SDS011;54410;48.694;8.934;2023-01-15T15:06:28;1.03;;;0.63;;
67595;SDS011;54410;48.694;8.934;2023-01-15T15:08:57;0.70;;;0.70;;
67595;SDS011;54410;48.694;8.934;2023-01-15T15:11:28;3.27;;;0.97;;
67595;SDS011;54410;48.694;8.934;2023-01-15T15:14:16;4.17;;;0.97;;
67595;SDS011;54410;48.694;8.934;2023-01-15T15:16:43;1.33;;;0.90;;
67595;SDS011;54410;48.694;8.934;2023-01-15T15:19:25;1.13;;;0.90;;
67595;SDS011;54410;48.694;8.934;2023-01-15T15:21:53;0.90;;;0.90;;
67595;SDS011;54410;48.694;8.934;2023-01-15T15:24:25;1.07;;;0.97;;
67595;SDS011;54410;48.694;8.934;2023-01-15T15:26:53;0.60;;;0.60;;
67595;SDS011;54410;48.694;8.934;2023-01-15T15:29:19;0.70;;;0.67;;
67595;SDS011;54410;48.694;8.934;2023-01-15T15:31:48;3.20;;;0.80;;
67595;SDS011;54410;48.694;8.934;2023-01-15T15:34:25;1.50;;;1.00;;
67595;SDS011;54410;48.694;8.934;2023-01-15T15:36:52;1.90;;;1.30;;
67595;SDS011;54410;48.694;8.934;2023-01-15T15:39:22;1.40;;;1.13;;
67595;SDS011;54410;48.694;8.934;2023-01-15T15:42:13;1.47;;;1.30;;
67595;SDS011;54410;48.694;8.934;2023-01-15T15:45:01;2.97;;;0.77;;
67595;SDS011;54410;48.694;8.934;2023-01-15T15:47:45;1.63;;;1.03;;
67595;SDS011;54410;48.694;8.934;2023-01-15T15:50:30;1.53;;;1.40;;
67595;SDS011;54410;48.694;8.934;2023-01-15T15:52:57;3.77;;;1.73;;
67595;SDS011;54410;48.694;8.934;2023-01-15T15:55:24;2.40;;;2.20;;
67595;SDS011;54410;48.694;8.934;2023-01-15T15:57:53;1.73;;;1.63;;
67595;SDS011;54410;48.694;8.934;2023-01-15T16:00:28;1.37;;;1.27;;
67595;SDS011;54410;48.694;8.934;2023-01-15T16:03:00;2.13;;;1.60;;
67595;SDS011;54410;48.694;8.934;2023-01-15T16:05:28;2.50;;;2.20;;
67595;SDS011;54410;48.694;8.934;2023-01-15T16:08:06;3.07;;;2.40;;
67595;SDS011;54410;48.694;8.934;2023-01-15T16:10:45;5.43;;;2.73;;
67595;SDS011;54410;48.694;8.934;2023-01-15T16:13:20;1.77;;;1.30;;
67595;SDS011;54410;48.694;8.934;2023-01-15T16:15:47;3.23;;;1.50;;
67595;SDS011;54410;48.694;8.934;2023-01-15T16:18:51;4.70;;;2.57;;
67595;SDS011;54410;48.694;8.934;2023-01-15T16:21:09;3.67;;;2.40;;
67595;SDS011;54410;48.694;8.934;2023-01-15T16:23:36;2.77;;;2.53;;
67595;SDS011;54410;48.694;8.934;2023-01-15T16:26:05;4.70;;;2.20;;
67595;SDS011;54410;48.694;8.934;2023-01-15T16:28:53;12.87;;;6.07;;
67595;SDS011;54410;48.694;8.934;2023-01-15T16:31:20;6.17;;;2.67;;
67595;SDS011;54410;48.694;8.934;2023-01-15T16:33:46;3.57;;;1.80;;
67595;SDS011;54410;48.694;8.934;2023-01-15T16:36:17;2.80;;;1.60;;
67595;SDS011;54410;48.694;8.934;2023-01-15T16:38:46;3.67;;;2.13;;
67595;SDS011;54410;48.694;8.934;2023-01-15T16:41:17;5.67;;;3.87;;
67595;SDS011;54410;48.694;8.934;2023-01-15T16:43:54;3.50;;;1.93;;
67595;SDS011;54410;48.694;8.934;2023-01-15T16:46:20;9.37;;;3.73;;
67595;SDS011;54410;48.694;8.934;2023-01-15T16:48:47;1.70;;;1.60;;
67595;SDS011;54410;48.694;8.934;2023-01-15T16:51:56;2.43;;;1.67;;
67595;SDS011;54410;48.694;8.934;2023-01-15T16:54:09;4.77;;;2.23;;
67595;SDS011;54410;48.694;8.934;2023-01-15T16:56:52;3.73;;;1.30;;
67595;SDS011;54410;48.694;8.934;2023-01-15T17:01:51;1.97;;;1.00;;